createdAt,value
2019-02-21T00:02:15.358Z,18.12
2019-02-21T00:04:44.297Z,18.77
2019-02-21T00:07:12.857Z,19.07
2019-02-21T00:09:41.356Z,20.25
2019-02-21T00:12:09.834Z,18.98
2019-02-21T00:14:38.302Z,18.67
2019-02-21T00:17:06.847Z,18.17
2019-02-21T00:19:35.399Z,19.15
2019-02-21T00:22:03.950Z,19.00
2019-02-21T00:24:32.497Z,19.65
2019-02-21T00:27:00.995Z,20.30
2019-02-21T00:29:32.262Z,19.52
2019-02-21T00:32:00.734Z,18.52
2019-02-21T00:34:29.207Z,19.02
2019-02-21T00:36:57.803Z,18.92
2019-02-21T00:39:26.274Z,20.20
2019-02-21T00:41:54.756Z,19.12
2019-02-21T00:44:23.242Z,19.25
2019-02-21T00:46:51.898Z,19.62
2019-02-21T00:49:20.462Z,19.87
2019-02-21T00:51:49.014Z,19.27
2019-02-21T00:54:17.487Z,20.02
2019-02-21T00:56:45.964Z,20.43
2019-02-21T00:59:14.430Z,19.73
2019-02-21T01:01:43.589Z,21.12
2019-02-21T01:04:12.050Z,20.17
2019-02-21T01:06:40.526Z,20.37
2019-02-21T01:09:09.176Z,20.12
2019-02-21T01:11:37.788Z,20.62
2019-02-21T01:14:07.724Z,21.45
2019-02-21T01:16:36.220Z,19.77
2019-02-21T01:19:04.905Z,22.27
2019-02-21T01:21:33.453Z,19.05
2019-02-21T01:24:04.728Z,20.35
2019-02-21T01:26:32.274Z,20.82
2019-02-21T01:29:00.763Z,20.05
2019-02-21T01:31:29.230Z,20.65
2019-02-21T01:33:57.886Z,19.55
2019-02-21T01:36:26.341Z,19.12
2019-02-21T01:38:54.865Z,19.85
2019-02-21T01:41:23.326Z,19.75
2019-02-21T01:43:51.828Z,20.40
2019-02-21T01:46:20.307Z,20.30
2019-02-21T01:48:48.802Z,20.10
2019-02-21T01:51:17.250Z,21.27
2019-02-21T01:53:45.785Z,19.23
2019-02-21T01:56:14.226Z,20.00
2019-02-21T01:58:42.713Z,19.95
2019-02-21T02:01:11.167Z,20.65
2019-02-21T02:03:39.804Z,21.27
2019-02-21T02:06:08.276Z,20.72
2019-02-21T02:08:37.321Z,20.72
2019-02-21T02:11:05.885Z,20.37
2019-02-21T02:13:34.536Z,19.48
2019-02-21T02:16:03.076Z,20.62
2019-02-21T02:18:31.603Z,20.02
2019-02-21T02:21:00.160Z,20.25
2019-02-21T02:23:28.697Z,21.40
2019-02-21T02:25:57.161Z,21.07
2019-02-21T02:28:25.659Z,20.25
2019-02-21T02:30:55.792Z,21.52
2019-02-21T02:33:24.294Z,20.82
2019-02-21T02:35:52.748Z,21.95
2019-02-21T02:38:21.301Z,21.75
2019-02-21T02:40:49.839Z,21.73
2019-02-21T02:43:21.314Z,22.42
2019-02-21T02:45:49.909Z,22.22
2019-02-21T02:48:18.377Z,21.27
2019-02-21T02:50:46.913Z,21.68
2019-02-21T02:53:15.389Z,22.90
2019-02-21T02:55:43.869Z,24.15
2019-02-21T02:58:12.500Z,22.52
2019-02-21T03:00:40.989Z,24.65
2019-02-21T03:03:09.516Z,24.52
2019-02-21T03:05:37.999Z,23.73
2019-02-21T03:08:06.488Z,24.25
2019-02-21T03:10:36.509Z,23.38
2019-02-21T03:13:06.367Z,24.65
2019-02-21T03:15:35.309Z,23.62
2019-02-21T03:18:03.774Z,23.70
2019-02-21T03:20:32.277Z,23.50
2019-02-21T03:23:00.789Z,22.13
2019-02-21T03:25:29.295Z,22.82
2019-02-21T03:27:57.909Z,22.02
2019-02-21T03:30:26.389Z,24.00
2019-02-21T03:32:54.875Z,25.02
2019-02-21T03:35:23.533Z,25.17
2019-02-21T03:37:52.050Z,22.70
2019-02-21T03:40:20.700Z,23.32
2019-02-21T03:42:49.185Z,24.02
2019-02-21T03:45:17.845Z,23.98
2019-02-21T03:47:48.048Z,23.75
2019-02-21T03:50:16.721Z,23.00
2019-02-21T03:52:45.273Z,21.90
2019-02-21T03:55:13.911Z,22.37
2019-02-21T03:57:45.397Z,23.40
2019-02-21T04:00:14.132Z,21.77
2019-02-21T04:02:42.821Z,22.93
2019-02-21T04:05:11.509Z,23.22
2019-02-21T04:07:39.997Z,23.00
2019-02-21T04:10:09.648Z,22.52
2019-02-21T04:12:38.721Z,22.85
2019-02-21T04:15:10.130Z,23.18
2019-02-21T04:17:38.728Z,22.32
2019-02-21T04:20:08.465Z,23.73
2019-02-21T04:22:36.919Z,22.48
2019-02-21T04:25:07.232Z,21.73
2019-02-21T04:27:35.771Z,23.00
2019-02-21T04:30:04.843Z,22.98
2019-02-21T04:32:33.396Z,22.90
2019-02-21T04:35:01.983Z,24.43
2019-02-21T04:37:30.449Z,23.07
2019-02-21T04:39:58.916Z,23.38
2019-02-21T04:42:27.395Z,23.42
2019-02-21T04:44:55.931Z,23.62
2019-02-21T04:47:24.425Z,23.65
2019-02-21T04:49:52.894Z,22.77
2019-02-21T04:52:21.391Z,23.20
2019-02-21T04:54:49.859Z,25.68
2019-02-21T04:57:18.363Z,23.52
2019-02-21T04:59:46.921Z,24.07
2019-02-21T05:02:15.459Z,23.90
2019-02-21T05:04:43.939Z,24.25
2019-02-21T05:07:12.444Z,23.83
2019-02-21T05:09:40.919Z,25.02
2019-02-21T05:12:09.433Z,24.32
2019-02-21T05:14:37.924Z,24.07
2019-02-21T05:17:06.472Z,25.12
2019-02-21T05:19:34.946Z,24.43
2019-02-21T05:22:03.450Z,24.18
2019-02-21T05:24:31.936Z,26.12
2019-02-21T05:27:05.024Z,25.55
2019-02-21T05:29:33.504Z,24.65
2019-02-21T05:32:06.118Z,23.95
2019-02-21T05:34:36.276Z,25.95
2019-02-21T05:40:03.792Z,24.15
2019-02-21T05:42:36.994Z,25.88
2019-02-21T05:45:14.063Z,26.45
2019-02-21T05:47:46.097Z,23.83
2019-02-21T05:50:25.570Z,24.30
2019-02-21T05:52:55.718Z,26.15
2019-02-21T05:55:29.424Z,25.48
2019-02-21T05:57:59.501Z,25.27
2019-02-21T06:00:36.911Z,26.20
2019-02-21T06:03:13.207Z,26.17
2019-02-21T06:05:59.340Z,24.18
2019-02-21T06:08:29.466Z,25.75
2019-02-21T06:11:11.375Z,26.05
2019-02-21T06:13:57.520Z,26.30
2019-02-21T06:16:32.543Z,25.37
2019-02-21T06:19:04.957Z,25.90
2019-02-21T06:21:37.634Z,25.92
2019-02-21T06:24:22.679Z,24.40
2019-02-21T06:26:56.821Z,25.43
2019-02-21T06:29:26.948Z,24.77
2019-02-21T06:31:57.789Z,24.02
2019-02-21T06:34:26.267Z,23.25
2019-02-21T06:36:54.770Z,26.57
2019-02-21T06:39:25.122Z,25.12
2019-02-21T06:41:59.719Z,23.15
2019-02-21T06:44:23.701Z,26.57
2019-02-21T06:46:52.184Z,25.32
2019-02-21T06:49:31.835Z,23.95
2019-02-21T06:51:50.887Z,22.60
2019-02-21T06:54:19.369Z,24.70
2019-02-21T06:56:47.858Z,25.72
2019-02-21T06:59:16.341Z,25.55
2019-02-21T07:01:44.821Z,25.50
2019-02-21T07:04:13.354Z,24.65
2019-02-21T07:06:43.785Z,24.85
2019-02-21T07:09:12.265Z,24.02
2019-02-21T07:11:40.821Z,24.47
2019-02-21T07:14:10.930Z,24.15
2019-02-21T07:16:39.536Z,24.35
2019-02-21T07:19:08.001Z,24.52
2019-02-21T07:21:36.742Z,24.55
2019-02-21T07:24:05.355Z,25.45
2019-02-21T07:27:19.035Z,24.92
2019-02-21T07:29:47.534Z,24.52
2019-02-21T07:32:16.026Z,24.85
2019-02-21T07:34:46.026Z,26.70
2019-02-21T07:37:18.677Z,25.48
2019-02-21T07:39:44.839Z,25.08
2019-02-21T07:42:13.446Z,26.23
2019-02-21T07:44:42.005Z,24.50
2019-02-21T07:47:10.492Z,26.23
2019-02-21T07:49:41.003Z,24.12
2019-02-21T07:52:09.462Z,25.60
2019-02-21T07:54:38.012Z,23.87
2019-02-21T07:57:08.492Z,26.07
2019-02-21T07:59:36.758Z,25.12
2019-02-21T08:02:05.316Z,22.40
2019-02-21T08:04:33.798Z,21.93
2019-02-21T08:07:02.273Z,22.98
2019-02-21T08:09:30.776Z,21.97
2019-02-21T08:11:59.334Z,22.50
2019-02-21T08:14:27.811Z,22.37
2019-02-21T08:16:56.328Z,21.05
2019-02-21T08:19:24.916Z,22.37
2019-02-21T08:21:53.545Z,22.10
2019-02-21T08:24:22.122Z,22.90
2019-02-21T08:26:50.587Z,23.38
2019-02-21T08:29:20.766Z,20.70
2019-02-21T08:31:49.591Z,22.45
2019-02-21T08:34:19.721Z,22.25
2019-02-21T08:36:48.314Z,22.10
2019-02-21T08:39:16.787Z,22.20
2019-02-21T08:41:45.260Z,23.30
2019-02-21T08:44:13.807Z,24.45
2019-02-21T08:46:42.425Z,25.48
2019-02-21T08:49:10.919Z,24.27
2019-02-21T08:51:39.394Z,24.18
2019-02-21T08:54:07.871Z,25.48
2019-02-21T08:56:36.370Z,23.38
2019-02-21T08:59:04.845Z,25.10
2019-02-21T09:01:33.373Z,25.82
2019-02-21T09:04:10.093Z,25.70
2019-02-21T09:06:32.188Z,26.10
2019-02-21T09:09:00.701Z,26.87
2019-02-21T09:11:29.169Z,26.90
2019-02-21T09:13:57.721Z,25.30
2019-02-21T09:16:26.176Z,28.50
2019-02-21T09:18:54.714Z,25.65
2019-02-21T09:21:23.273Z,25.82
2019-02-21T09:23:51.736Z,24.77
2019-02-21T09:26:21.684Z,23.95
2019-02-21T09:28:50.371Z,25.43
2019-02-21T09:31:18.960Z,25.15
2019-02-21T09:33:47.422Z,24.72
2019-02-21T09:36:16.966Z,25.15
2019-02-21T09:38:45.383Z,24.63
2019-02-21T09:41:13.869Z,25.50
2019-02-21T09:43:42.416Z,27.17
2019-02-21T09:46:11.013Z,24.25
2019-02-21T09:48:39.585Z,25.77
2019-02-21T09:51:08.194Z,25.05
2019-02-21T09:53:36.661Z,25.62
2019-02-21T09:56:05.199Z,25.30
2019-02-21T09:58:33.775Z,26.07
2019-02-21T10:01:02.394Z,25.20
2019-02-21T10:03:30.899Z,25.23
2019-02-21T10:05:59.372Z,26.23
2019-02-21T10:08:27.847Z,25.10
2019-02-21T10:10:56.328Z,25.43
2019-02-21T10:13:24.819Z,25.23
2019-02-21T10:15:53.415Z,25.00
2019-02-21T10:18:21.909Z,26.77
2019-02-21T10:20:50.598Z,25.65
2019-02-21T10:23:19.085Z,26.37
2019-02-21T10:25:47.653Z,25.85
2019-02-21T10:28:16.263Z,24.43
2019-02-21T10:30:44.744Z,25.12
2019-02-21T10:33:13.223Z,25.90
2019-02-21T10:35:47.919Z,25.88
2019-02-21T10:38:16.421Z,24.77
2019-02-21T10:40:44.927Z,23.30
2019-02-21T10:43:15.269Z,24.57
2019-02-21T10:45:47.795Z,23.02
2019-02-21T10:48:14.027Z,23.00
2019-02-21T10:50:42.497Z,23.50
2019-02-21T10:53:12.101Z,23.73
2019-02-21T10:55:40.587Z,25.45
2019-02-21T10:58:09.217Z,22.60
2019-02-21T11:00:37.972Z,25.08
2019-02-21T11:03:06.604Z,24.85
2019-02-21T11:05:35.214Z,29.70
2019-02-21T11:08:03.979Z,28.38
2019-02-21T11:10:32.490Z,29.55
2019-02-21T11:13:01.009Z,31.70
2019-02-21T11:15:29.514Z,29.75
2019-02-21T11:17:58.247Z,31.10
2019-02-21T11:20:26.830Z,30.20
2019-02-21T11:22:55.341Z,30.32
2019-02-21T11:25:23.945Z,30.12
2019-02-21T11:27:52.437Z,29.92
2019-02-21T11:30:21.613Z,28.00
2019-02-21T11:32:50.183Z,29.60
2019-02-21T11:35:18.814Z,30.65
2019-02-21T11:37:47.718Z,32.13
2019-02-21T11:40:17.613Z,34.15
2019-02-21T11:42:46.367Z,30.85
2019-02-21T11:45:19.824Z,32.10
2019-02-21T11:47:48.323Z,31.73
2019-02-21T11:50:18.641Z,30.45
2019-02-21T11:52:47.212Z,31.37
2019-02-21T11:55:26.240Z,32.48
2019-02-21T11:57:55.139Z,34.60
2019-02-21T12:00:32.872Z,36.10
2019-02-21T12:03:01.376Z,38.65
2019-02-21T12:05:31.888Z,35.20
2019-02-21T12:08:11.548Z,33.95
2019-02-21T12:10:40.023Z,35.15
2019-02-21T12:13:08.518Z,33.85
2019-02-21T12:16:06.256Z,36.55
2019-02-21T12:18:48.472Z,36.48
2019-02-21T12:21:17.116Z,36.03
2019-02-21T12:24:10.791Z,37.05
2019-02-21T12:26:41.258Z,36.98
2019-02-21T12:29:46.886Z,37.20
2019-02-21T12:32:21.140Z,36.98
2019-02-21T12:34:49.960Z,35.55
2019-02-21T12:37:18.484Z,38.05
2019-02-21T12:39:46.962Z,31.85
2019-02-21T12:42:15.538Z,32.60
2019-02-21T12:44:44.060Z,30.05
2019-02-21T12:47:12.621Z,31.25
2019-02-21T12:49:41.137Z,32.08
2019-02-21T12:52:09.742Z,37.63
2019-02-21T12:54:38.281Z,36.00
2019-02-21T12:57:06.775Z,36.33
2019-02-21T12:59:35.232Z,34.55
2019-02-21T13:02:03.956Z,33.33
2019-02-21T13:04:34.624Z,33.23
2019-02-21T13:07:02.671Z,32.80
2019-02-21T13:09:31.665Z,35.10
2019-02-21T13:12:01.319Z,36.77
2019-02-21T13:14:29.821Z,35.13
2019-02-21T13:16:58.281Z,33.83
2019-02-21T13:19:26.755Z,34.70
2019-02-21T13:21:55.342Z,31.05
2019-02-21T13:24:23.881Z,34.15
2019-02-21T13:26:53.405Z,31.00
2019-02-21T13:29:21.866Z,33.53
2019-02-21T13:31:50.359Z,31.15
2019-02-21T13:34:18.853Z,33.15
2019-02-21T13:36:47.336Z,32.33
2019-02-21T13:39:15.802Z,33.23
2019-02-21T13:41:44.286Z,29.90
2019-02-21T13:44:12.797Z,31.35
2019-02-21T13:46:41.904Z,32.45
2019-02-21T13:49:10.572Z,31.48
2019-02-21T13:51:39.119Z,33.10
2019-02-21T13:54:07.614Z,33.60
2019-02-21T13:56:36.075Z,34.23
2019-02-21T13:59:06.272Z,32.42
2019-02-21T14:01:34.758Z,30.97
2019-02-21T14:04:03.261Z,29.23
2019-02-21T14:06:31.748Z,27.32
2019-02-21T14:09:00.243Z,29.92
2019-02-21T14:11:30.732Z,28.87
2019-02-21T14:13:59.007Z,29.63
2019-02-21T14:16:27.531Z,28.62
2019-02-21T14:18:56.110Z,29.52
2019-02-21T14:21:24.638Z,28.50
2019-02-21T14:23:53.148Z,25.50
2019-02-21T14:26:21.695Z,26.68
2019-02-21T14:28:50.189Z,26.60
2019-02-21T14:31:18.655Z,27.00
2019-02-21T14:33:47.155Z,27.10
2019-02-21T14:36:19.083Z,27.95
2019-02-21T14:38:46.148Z,27.30
2019-02-21T14:41:14.678Z,26.23
2019-02-21T14:43:43.261Z,28.55
2019-02-21T14:46:11.732Z,27.42
2019-02-21T14:48:40.229Z,27.60
2019-02-21T14:51:08.764Z,28.42
2019-02-21T14:53:37.233Z,29.57
2019-02-21T14:56:05.855Z,30.50
2019-02-21T14:58:34.327Z,32.70
2019-02-21T15:01:02.858Z,30.23
2019-02-21T15:03:31.356Z,28.73
2019-02-21T15:05:59.858Z,31.25
2019-02-21T15:08:28.351Z,34.05
2019-02-21T15:10:56.813Z,30.90
2019-02-21T15:13:25.685Z,33.20
2019-02-21T15:15:54.176Z,34.23
2019-02-21T15:18:22.768Z,32.42
2019-02-21T15:20:51.290Z,30.88
2019-02-21T15:23:19.853Z,32.73
2019-02-21T15:25:48.307Z,31.45
2019-02-21T15:28:16.792Z,33.02
2019-02-21T15:30:45.504Z,34.48
2019-02-21T15:33:14.076Z,38.28
2019-02-21T15:35:42.618Z,35.50
2019-02-21T15:38:19.834Z,31.77
2019-02-21T15:40:44.491Z,33.98
2019-02-21T15:43:13.064Z,31.17
2019-02-21T15:45:41.712Z,34.73
2019-02-21T15:48:10.339Z,38.95
2019-02-21T15:50:38.802Z,35.48
2019-02-21T15:53:08.944Z,36.60
2019-02-21T15:55:37.436Z,40.05
2019-02-21T15:58:05.907Z,37.40
2019-02-21T16:00:34.452Z,39.30
2019-02-21T16:03:09.887Z,39.13
2019-02-21T16:05:38.373Z,35.45
2019-02-21T16:11:29.179Z,33.90
2019-02-21T16:14:03.118Z,31.85
2019-02-21T16:16:28.909Z,29.45
2019-02-21T16:19:01.744Z,31.12
2019-02-21T16:21:30.575Z,33.80
2019-02-21T16:24:01.044Z,33.75
2019-02-21T16:26:29.224Z,31.97
2019-02-21T16:28:57.701Z,33.08
2019-02-21T16:31:26.562Z,33.55
2019-02-21T16:33:55.047Z,33.40
2019-02-21T16:36:24.158Z,32.00
2019-02-21T16:38:52.800Z,29.85
2019-02-21T16:41:21.450Z,34.35
2019-02-21T16:43:49.923Z,30.17
2019-02-21T16:46:18.538Z,31.70
2019-02-21T16:48:46.989Z,31.97
2019-02-21T16:51:15.937Z,30.92
2019-02-21T16:53:44.398Z,28.73
2019-02-21T16:56:13.508Z,30.70
2019-02-21T16:58:42.912Z,30.60
2019-02-21T17:01:11.665Z,27.73
2019-02-21T17:03:40.480Z,31.07
2019-02-21T17:06:09.024Z,30.48
2019-02-21T17:08:37.732Z,32.20
2019-02-21T17:11:06.422Z,28.07
2019-02-21T17:13:35.239Z,30.60
2019-02-21T17:16:04.252Z,29.32
2019-02-21T17:18:33.008Z,29.48
2019-02-21T17:21:01.847Z,26.80
2019-02-21T17:23:30.523Z,28.55
2019-02-21T17:25:59.222Z,27.17
2019-02-21T17:28:28.045Z,27.73
2019-02-21T17:30:56.770Z,27.35
2019-02-21T17:33:25.427Z,27.00
2019-02-21T17:35:55.070Z,25.95
2019-02-21T17:38:49.667Z,26.90
2019-02-21T17:41:18.451Z,22.93
2019-02-21T17:43:48.042Z,26.97
2019-02-21T17:46:20.936Z,24.87
2019-02-21T17:48:49.904Z,26.65
2019-02-21T17:51:18.800Z,24.60
2019-02-21T17:53:48.513Z,26.33
2019-02-21T17:56:17.169Z,24.65
2019-02-21T17:58:45.748Z,21.35
2019-02-21T18:01:14.278Z,22.55
2019-02-21T18:03:42.770Z,20.12
2019-02-21T18:06:11.820Z,19.37
2019-02-21T18:08:40.869Z,17.27
2019-02-21T18:11:09.643Z,17.90
2019-02-21T18:13:43.015Z,17.75
2019-02-21T18:16:13.122Z,17.25
2019-02-21T18:18:44.714Z,17.92
2019-02-21T18:21:16.157Z,17.82
2019-02-21T18:23:46.268Z,16.65
2019-02-21T18:26:16.789Z,18.37
2019-02-21T18:28:45.729Z,18.90
2019-02-21T18:31:14.591Z,19.40
2019-02-21T18:33:43.477Z,17.27
2019-02-21T18:36:12.053Z,19.00
2019-02-21T18:38:40.533Z,18.85
2019-02-21T18:41:09.620Z,19.15
2019-02-21T18:43:41.382Z,18.85
2019-02-21T18:46:10.124Z,20.92
2019-02-21T18:48:39.016Z,19.62
2019-02-21T18:51:08.043Z,24.18
2019-02-21T18:53:36.871Z,21.97
2019-02-21T18:56:06.377Z,21.90
2019-02-21T18:58:41.154Z,23.42
2019-02-21T19:03:38.201Z,23.00
2019-02-21T19:06:07.259Z,21.95
2019-02-21T19:08:36.326Z,19.85
2019-02-21T19:11:05.346Z,19.10
2019-02-21T19:13:35.733Z,18.50
2019-02-21T19:16:04.706Z,19.77
2019-02-21T19:18:33.529Z,18.32
2019-02-21T19:21:03.635Z,18.87
2019-02-21T19:23:32.242Z,19.00
2019-02-21T19:26:00.748Z,19.05
2019-02-21T19:28:31.319Z,18.45
2019-02-21T19:31:05.826Z,17.35
2019-02-21T19:33:34.398Z,19.05
2019-02-21T19:36:03.007Z,19.27
2019-02-21T19:38:36.599Z,18.65
2019-02-21T19:41:05.343Z,16.65
2019-02-21T19:43:33.964Z,16.25
2019-02-21T19:46:02.573Z,17.80
2019-02-21T19:48:31.139Z,18.00
2019-02-21T19:50:59.601Z,17.37
2019-02-21T19:53:28.175Z,19.00
2019-02-21T19:55:56.800Z,18.10
2019-02-21T19:58:25.368Z,20.02
2019-02-21T20:00:53.930Z,20.60
2019-02-21T20:03:22.554Z,20.25
2019-02-21T20:05:51.050Z,20.30
2019-02-21T20:08:21.716Z,21.17
2019-02-21T20:10:50.390Z,19.87
2019-02-21T20:13:19.072Z,21.52
2019-02-21T20:15:47.606Z,19.40
2019-02-21T20:18:16.132Z,23.00
2019-02-21T20:20:44.606Z,20.70
2019-02-21T20:23:16.241Z,22.67
2019-02-21T20:25:44.774Z,20.35
2019-02-21T20:28:15.664Z,22.22
2019-02-21T20:30:46.993Z,21.87
2019-02-21T20:33:14.822Z,24.25
2019-02-21T20:35:43.467Z,21.35
2019-02-21T20:38:12.002Z,22.87
2019-02-21T20:40:40.570Z,22.55
2019-02-21T20:43:09.236Z,21.17
2019-02-21T20:45:39.344Z,21.80
2019-02-21T20:48:08.060Z,23.55
2019-02-21T20:50:36.636Z,23.50
2019-02-21T20:53:05.152Z,24.27
2019-02-21T20:55:43.064Z,24.07
2019-02-21T20:58:06.737Z,24.57
2019-02-21T21:00:35.317Z,24.00
2019-02-21T21:03:03.770Z,23.83
2019-02-21T21:05:32.260Z,26.37
2019-02-21T21:12:29.195Z,25.85
2019-02-21T21:14:59.225Z,27.55
2019-02-21T21:17:27.715Z,28.87
2019-02-21T21:19:56.731Z,28.15
2019-02-21T21:22:25.223Z,28.85
2019-02-21T21:24:53.807Z,29.92
2019-02-21T21:27:22.915Z,28.75
2019-02-21T21:29:51.921Z,28.90
2019-02-21T21:32:20.446Z,30.17
2019-02-21T21:34:48.911Z,29.20
2019-02-21T21:37:17.410Z,29.10
2019-02-21T21:39:49.187Z,30.43
2019-02-21T21:42:17.679Z,30.35
2019-02-21T21:44:46.233Z,30.27
2019-02-21T21:47:14.811Z,29.25
2019-02-21T21:49:43.273Z,28.90
2019-02-21T21:52:11.818Z,30.10
2019-02-21T21:54:40.371Z,32.38
2019-02-21T21:57:09.431Z,32.30
2019-02-21T21:59:37.891Z,30.05
2019-02-21T22:02:06.407Z,29.05
2019-02-21T22:04:34.872Z,30.43
2019-02-21T22:07:09.691Z,32.40
2019-02-21T22:12:05.933Z,28.87
2019-02-21T22:14:34.412Z,31.40
2019-02-21T22:17:04.507Z,31.33
2019-02-21T22:19:33.005Z,28.62
2019-02-21T22:22:01.460Z,29.92
2019-02-21T22:24:29.956Z,29.23
2019-02-21T22:26:58.438Z,29.52
2019-02-21T22:29:26.920Z,29.87
2019-02-21T22:31:55.387Z,29.35
2019-02-21T22:34:28.326Z,27.50
2019-02-21T22:36:58.438Z,30.17
2019-02-21T22:39:26.929Z,30.90
2019-02-21T22:41:55.415Z,31.68
2019-02-21T22:44:24.006Z,30.55
2019-02-21T22:46:52.689Z,31.10
2019-02-21T22:49:21.260Z,31.17
2019-02-21T22:51:49.735Z,31.25
2019-02-21T22:54:18.218Z,30.15
2019-02-21T22:56:46.682Z,31.05
2019-02-21T22:59:15.164Z,31.25
2019-02-21T23:01:43.870Z,30.90
2019-02-21T23:04:15.704Z,31.07
2019-02-21T23:06:59.015Z,28.52
2019-02-21T23:09:28.324Z,28.98
2019-02-21T23:11:56.975Z,31.97
2019-02-21T23:14:25.523Z,32.40
2019-02-21T23:16:54.085Z,31.50
2019-02-21T23:19:24.217Z,29.95
2019-02-21T23:21:52.873Z,30.65
2019-02-21T23:24:21.328Z,31.70
2019-02-21T23:26:49.802Z,28.38
2019-02-21T23:29:18.688Z,32.15
2019-02-21T23:31:47.187Z,31.52
2019-02-21T23:34:19.854Z,30.25
2019-02-21T23:36:48.331Z,31.65
2019-02-21T23:39:16.811Z,31.30
2019-02-21T23:41:45.286Z,28.02
2019-02-21T23:44:13.821Z,28.25
2019-02-21T23:46:42.360Z,28.17
2019-02-21T23:49:10.841Z,27.55
2019-02-21T23:51:39.364Z,24.37
2019-02-21T23:54:07.902Z,27.27
2019-02-21T23:56:36.423Z,26.70
2019-02-21T23:59:04.893Z,26.93
